Thalassa — FNFP — position and weather

sailwx.info

Track history (hours):
 
Tides and Currents Weather Stations Pressure Air Temp Water Temp Dewpoint Dewpoint Depression Visibility Wind Speed Wind Dir Waves Ship Positions

Oceanographic research ship Thalassa (France & Spain)

Detailed information on ship capabilities available from University of Delaware's Ocean Information Center.

Last reported at 2015-May-06 10:33 UTC. Time now 2015-May-06 11:29 UTC.
Position N 44°40' W 001°25'.

Length 74 m; beam 15 m.

Type: . MMSI: 227297000.

Date/timePositionNaut miles runAvg speedWind from/ knotsBaromVisibWave heightAir tempDewpointWater temp
2015-May-06 10:33N 44°40' W 001°25'1 1.1
2015-May-06 09:33N 44°40' W 001°24'1010.3
2015-May-06 08:33N 44°40' W 001°38'9 8.9
2015-May-06 07:33N 44°40' W 001°51'4 4.2
2015-May-06 06:33N 44°40' W 001°45'12 1.5
2015-May-05 22:19N 44°28' W 001°44'6 8.4
2015-May-05 21:33N 44°28' W 001°34'3 3.2
2015-May-05 20:33N 44°28' W 001°30'7 6.9
2015-May-05 19:33N 44°28' W 001°20'2 1.5
2015-May-05 18:33N 44°28' W 001°22'1010.3
2015-May-05 17:33N 44°28' W 001°37'9 7.8
2015-May-05 16:27N 44°28' W 001°49'4 4.0
2015-May-05 15:26N 44°28' W 001°43'16 1.2
2015-May-05 02:07N 44°28' W 002°06'0 0.5
2015-May-05 01:33N 44°28' W 002°06'11 9.8
2015-May-05 00:26N 44°28' W 002°21'1 0.2
2015-May-04 18:33N 44°28' W 002°20'12 9.0
2015-May-04 17:12N 44°28' W 002°03'3 2.8
2015-May-04 16:10N 44°28' W 002°07'2412.7
2015-May-04 14:18N 44°16' W 002°35'27 7.1
2015-May-04 10:29N 44°16' W 001°57'3 3.5
2015-May-04 09:33N 44°16' W 002°02'10 9.8
2015-May-04 08:33N 44°16' W 001°48'1010.2
2015-May-04 07:33N 44°16' W 001°34'1 1.3
2015-May-04 06:32N 44°16' W 001°32'3 3.2
2015-May-04 05:30N 44°16' W 001°27'5 4.5
2015-May-04 04:20N 44°16' W 001°20'38 1.8
2015-May-03 07:33N 43°52' W 002°00'5 5.1
2015-May-03 06:33N 43°52' W 002°07'1010.2
2015-May-03 05:33N 43°52' W 002°21'3 1.6
2015-May-03 03:33N 43°49' W 002°22'18 5.6
2015-May-03 00:19N 43°40' W 001°60'9 6.8
2015-May-02 23:03N 43°40' W 001°48'3 4.0
2015-May-02 22:19N 43°40' W 001°44'7 8.4
2015-May-02 21:32N 43°40' W 001°35'5 4.7
2015-May-02 20:28N 43°40' W 001°28'6 4.4
2015-May-02 19:08N 43°40' W 001°36'3 4.8
2015-May-02 18:33N 43°40' W 001°32'14 4.6
2015-May-02 15:26N 43°40' W 001°52'276 6.0
2015-Apr-30 17:32N 47°51' W 004°39'1111.4
2015-Apr-30 16:34N 48°01' W 004°45'1010.3
2015-Apr-30 15:33N 48°11' W 004°45'9 8.9
2015-Apr-30 14:31N 48°20' W 004°40'0 0.0
2015-Apr-30 13:31N 48°20' W 004°41'0 0.0
2015-Apr-30 12:31N 48°20' W 004°40'0 0.0
2015-Apr-30 11:31N 48°20' W 004°40'0 0.0
2015-Apr-30 10:31N 48°20' W 004°40'0 0.0
2015-Apr-30 09:31N 48°20' W 004°41'0 0.0
2015-Apr-30 08:31N 48°20' W 004°41'0 0.0
2015-Apr-30 07:34N 48°20' W 004°40'6 5.9
2015-Apr-30 06:34N 48°21' W 004°32'2 2.5
2015-Apr-30 05:34N 48°23' W 004°29'0 0.0
2015-Apr-30 04:32N 48°23' W 004°29'0 0.0
2015-Apr-30 03:29N 48°23' W 004°29'0 0.0
2015-Apr-30 02:32N 48°23' W 004°29'0 0.0
2015-Apr-30 01:32N 48°23' W 004°29'0 0.0
2015-Apr-30 00:32N 48°23' W 004°29'0 0.0
2015-Apr-29 23:32N 48°23' W 004°29'0 0.0
2015-Apr-29 22:32N 48°23' W 004°29'0 0.0
2015-Apr-29 21:32N 48°23' W 004°29'0 0.0
2015-Apr-29 20:32N 48°23' W 004°29'0 0.0
2015-Apr-29 19:32N 48°23' W 004°29'0 0.0
2015-Apr-29 18:32N 48°23' W 004°29'0 0.0
2015-Apr-29 17:32N 48°23' W 004°29'0 0.0
2015-Apr-29 16:32N 48°23' W 004°29'0 0.0
2015-Apr-29 15:29N 48°23' W 004°29'0 0.0
2015-Apr-29 14:32N 48°23' W 004°29'0 0.0
2015-Apr-29 13:32N 48°23' W 004°29'0 0.0
2015-Apr-29 12:32N 48°23' W 004°29'0 0.0
2015-Apr-29 11:32N 48°23' W 004°29'0 0.0
2015-Apr-29 10:32N 48°23' W 004°29'0 0.0
2015-Apr-29 09:32N 48°23' W 004°29'0 0.0
2015-Apr-29 08:32N 48°23' W 004°29'0 0.0
2015-Apr-29 07:32N 48°23' W 004°29'0 0.0
2015-Apr-29 06:32N 48°23' W 004°29'0 0.0
2015-Apr-29 05:32N 48°23' W 004°29'0 0.0
2015-Apr-29 04:32N 48°23' W 004°29'0 0.0
2015-Apr-29 03:29N 48°23' W 004°29'0 0.0
2015-Apr-29 02:32N 48°23' W 004°29'0 0.0
2015-Apr-29 01:32N 48°23' W 004°29'0 0.0
2015-Apr-29 00:32N 48°23' W 004°29'0 0.0
2015-Apr-28 23:32N 48°23' W 004°29'0 0.0
2015-Apr-28 22:32N 48°23' W 004°29'0 0.0
2015-Apr-28 21:32N 48°23' W 004°29'0 0.0
2015-Apr-28 20:32N 48°23' W 004°29'0 0.0
2015-Apr-28 19:32N 48°23' W 004°29'0 0.0
2015-Apr-28 18:32N 48°23' W 004°29'0 0.0
2015-Apr-28 17:32N 48°23' W 004°29'0 0.0
2015-Apr-28 16:32N 48°23' W 004°29'0 0.0
2015-Apr-28 15:32N 48°23' W 004°29'0 0.0
2015-Apr-28 14:32N 48°23' W 004°29'0 0.0
2015-Apr-28 13:32N 48°23' W 004°29'0 0.0
2015-Apr-28 12:32N 48°23' W 004°29'0 0.0
2015-Apr-28 11:32N 48°23' W 004°29'0 0.0
2015-Apr-28 10:32N 48°23' W 004°29'0 0.0
2015-Apr-28 09:33N 48°23' W 004°29'0 0.0
2015-Apr-28 08:34N 48°23' W 004°29'0 0.0
2015-Apr-28 07:33N 48°23' W 004°29'0 0.0
2015-Apr-28 06:33N 48°23' W 004°29'0 0.0
2015-Apr-28 05:33N 48°23' W 004°29'0 0.0
2015-Apr-28 04:33N 48°23' W 004°29'0 0.0
2015-Apr-28 03:33N 48°23' W 004°29'0 0.0
2015-Apr-28 02:33N 48°23' W 004°29'0 0.0
2015-Apr-28 01:33N 48°23' W 004°29'0 0.0
2015-Apr-28 00:33N 48°23' W 004°29'0 0.0
2015-Apr-27 23:34N 48°23' W 004°29'0 0.0
2015-Apr-27 22:33N 48°23' W 004°29'0 0.0
2015-Apr-27 21:33N 48°23' W 004°29'0 0.0
2015-Apr-27 20:33N 48°23' W 004°29'0 0.0
2015-Apr-27 19:33N 48°23' W 004°29'0 0.0
2015-Apr-27 18:33N 48°23' W 004°29'0 0.0
2015-Apr-27 17:33N 48°23' W 004°29'0 0.0
2015-Apr-27 16:33N 48°23' W 004°29'0 0.0
2015-Apr-27 15:33N 48°23' W 004°29'0 0.0
2015-Apr-27 14:33N 48°23' W 004°29'0 0.0
2015-Apr-27 13:33N 48°23' W 004°29'0 0.0
2015-Apr-27 12:33N 48°23' W 004°29'0 0.0
2015-Apr-27 11:33N 48°23' W 004°29'0 0.0
2015-Apr-27 10:33N 48°23' W 004°29'0 0.0
2015-Apr-27 09:33N 48°23' W 004°29'0 0.0
2015-Apr-27 08:33N 48°23' W 004°29'0 0.0
2015-Apr-27 07:33N 48°23' W 004°29'0 0.0
2015-Apr-27 06:33N 48°23' W 004°29'0 0.0
2015-Apr-27 05:33N 48°23' W 004°29'0 0.0
2015-Apr-27 04:33N 48°23' W 004°29'0 0.0
2015-Apr-27 03:33N 48°23' W 004°29'0 0.0
2015-Apr-27 02:33N 48°23' W 004°29'0 0.0
2015-Apr-27 01:33N 48°23' W 004°29'0 0.0
2015-Apr-27 00:33N 48°23' W 004°29'0 0.0
2015-Apr-26 23:33N 48°23' W 004°29'0 0.0
2015-Apr-26 22:33N 48°23' W 004°29'0 0.0
2015-Apr-26 21:33N 48°23' W 004°29'0 0.0
2015-Apr-26 20:33N 48°23' W 004°29'0 0.0
2015-Apr-26 19:33N 48°23' W 004°29'0 0.0
2015-Apr-26 18:33N 48°23' W 004°29'0 0.0
2015-Apr-26 17:33N 48°23' W 004°29'0 0.0
2015-Apr-26 16:33N 48°23' W 004°29'0 0.0
2015-Apr-26 15:33N 48°23' W 004°29'0 0.0
2015-Apr-26 14:33N 48°23' W 004°29'0 0.0
2015-Apr-26 13:33N 48°23' W 004°29'0 0.0
2015-Apr-26 12:33N 48°23' W 004°29'0 0.0
2015-Apr-26 11:33N 48°23' W 004°29'0 0.0
2015-Apr-26 10:33N 48°23' W 004°29'  
Track history (hours):
 
Tides and Currents Weather Stations Pressure Air Temp Water Temp Dewpoint Dewpoint Depression Visibility Wind Speed Wind Dir Waves Ship Positions

Oceanographic research ship Thalassa (France & Spain)

Detailed information on ship capabilities available from University of Delaware's Ocean Information Center.

Last reported at 2015-May-06 10:33 UTC. Time now 2015-May-06 11:29 UTC.
Position N 44°40' W 001°25'.

Length 74 m; beam 15 m.

Type: . MMSI: 227297000.

Date/timePositionNaut miles runAvg speedWind from/ knotsBaromVisibWave heightAir tempDewpointWater temp
2015-May-06 10:33N 44°40' W 001°25'1 1.1
2015-May-06 09:33N 44°40' W 001°24'1010.3
2015-May-06 08:33N 44°40' W 001°38'9 8.9
2015-May-06 07:33N 44°40' W 001°51'4 4.2
2015-May-06 06:33N 44°40' W 001°45'12 1.5
2015-May-05 22:19N 44°28' W 001°44'6 8.4
2015-May-05 21:33N 44°28' W 001°34'3 3.2
2015-May-05 20:33N 44°28' W 001°30'7 6.9
2015-May-05 19:33N 44°28' W 001°20'2 1.5
2015-May-05 18:33N 44°28' W 001°22'1010.3
2015-May-05 17:33N 44°28' W 001°37'9 7.8
2015-May-05 16:27N 44°28' W 001°49'4 4.0
2015-May-05 15:26N 44°28' W 001°43'16 1.2
2015-May-05 02:07N 44°28' W 002°06'0 0.5
2015-May-05 01:33N 44°28' W 002°06'11 9.8
2015-May-05 00:26N 44°28' W 002°21'1 0.2
2015-May-04 18:33N 44°28' W 002°20'12 9.0
2015-May-04 17:12N 44°28' W 002°03'3 2.8
2015-May-04 16:10N 44°28' W 002°07'2412.7
2015-May-04 14:18N 44°16' W 002°35'27 7.1
2015-May-04 10:29N 44°16' W 001°57'3 3.5
2015-May-04 09:33N 44°16' W 002°02'10 9.8
2015-May-04 08:33N 44°16' W 001°48'1010.2
2015-May-04 07:33N 44°16' W 001°34'1 1.3
2015-May-04 06:32N 44°16' W 001°32'3 3.2
2015-May-04 05:30N 44°16' W 001°27'5 4.5
2015-May-04 04:20N 44°16' W 001°20'38 1.8
2015-May-03 07:33N 43°52' W 002°00'5 5.1
2015-May-03 06:33N 43°52' W 002°07'1010.2
2015-May-03 05:33N 43°52' W 002°21'3 1.6
2015-May-03 03:33N 43°49' W 002°22'18 5.6
2015-May-03 00:19N 43°40' W 001°60'9 6.8
2015-May-02 23:03N 43°40' W 001°48'3 4.0
2015-May-02 22:19N 43°40' W 001°44'7 8.4
2015-May-02 21:32N 43°40' W 001°35'5 4.7
2015-May-02 20:28N 43°40' W 001°28'6 4.4
2015-May-02 19:08N 43°40' W 001°36'3 4.8
2015-May-02 18:33N 43°40' W 001°32'14 4.6
2015-May-02 15:26N 43°40' W 001°52'276 6.0
2015-Apr-30 17:32N 47°51' W 004°39'1111.4
2015-Apr-30 16:34N 48°01' W 004°45'1010.3
2015-Apr-30 15:33N 48°11' W 004°45'9 8.9
2015-Apr-30 14:31N 48°20' W 004°40'0 0.0
2015-Apr-30 13:31N 48°20' W 004°41'0 0.0
2015-Apr-30 12:31N 48°20' W 004°40'0 0.0
2015-Apr-30 11:31N 48°20' W 004°40'0 0.0
2015-Apr-30 10:31N 48°20' W 004°40'0 0.0
2015-Apr-30 09:31N 48°20' W 004°41'0 0.0
2015-Apr-30 08:31N 48°20' W 004°41'0 0.0
2015-Apr-30 07:34N 48°20' W 004°40'6 5.9
2015-Apr-30 06:34N 48°21' W 004°32'2 2.5
2015-Apr-30 05:34N 48°23' W 004°29'0 0.0
2015-Apr-30 04:32N 48°23' W 004°29'0 0.0
2015-Apr-30 03:29N 48°23' W 004°29'0 0.0
2015-Apr-30 02:32N 48°23' W 004°29'0 0.0
2015-Apr-30 01:32N 48°23' W 004°29'0 0.0
2015-Apr-30 00:32N 48°23' W 004°29'0 0.0
2015-Apr-29 23:32N 48°23' W 004°29'0 0.0
2015-Apr-29 22:32N 48°23' W 004°29'0 0.0
2015-Apr-29 21:32N 48°23' W 004°29'0 0.0
2015-Apr-29 20:32N 48°23' W 004°29'0 0.0
2015-Apr-29 19:32N 48°23' W 004°29'0 0.0
2015-Apr-29 18:32N 48°23' W 004°29'0 0.0
2015-Apr-29 17:32N 48°23' W 004°29'0 0.0
2015-Apr-29 16:32N 48°23' W 004°29'0 0.0
2015-Apr-29 15:29N 48°23' W 004°29'0 0.0
2015-Apr-29 14:32N 48°23' W 004°29'0 0.0
2015-Apr-29 13:32N 48°23' W 004°29'0 0.0
2015-Apr-29 12:32N 48°23' W 004°29'0 0.0
2015-Apr-29 11:32N 48°23' W 004°29'0 0.0
2015-Apr-29 10:32N 48°23' W 004°29'0 0.0
2015-Apr-29 09:32N 48°23' W 004°29'0 0.0
2015-Apr-29 08:32N 48°23' W 004°29'0 0.0
2015-Apr-29 07:32N 48°23' W 004°29'0 0.0
2015-Apr-29 06:32N 48°23' W 004°29'0 0.0
2015-Apr-29 05:32N 48°23' W 004°29'0 0.0
2015-Apr-29 04:32N 48°23' W 004°29'0 0.0
2015-Apr-29 03:29N 48°23' W 004°29'0 0.0
2015-Apr-29 02:32N 48°23' W 004°29'0 0.0
2015-Apr-29 01:32N 48°23' W 004°29'0 0.0
2015-Apr-29 00:32N 48°23' W 004°29'0 0.0
2015-Apr-28 23:32N 48°23' W 004°29'0 0.0
2015-Apr-28 22:32N 48°23' W 004°29'0 0.0
2015-Apr-28 21:32N 48°23' W 004°29'0 0.0
2015-Apr-28 20:32N 48°23' W 004°29'0 0.0
2015-Apr-28 19:32N 48°23' W 004°29'0 0.0
2015-Apr-28 18:32N 48°23' W 004°29'0 0.0
2015-Apr-28 17:32N 48°23' W 004°29'0 0.0
2015-Apr-28 16:32N 48°23' W 004°29'0 0.0
2015-Apr-28 15:32N 48°23' W 004°29'0 0.0
2015-Apr-28 14:32N 48°23' W 004°29'0 0.0
2015-Apr-28 13:32N 48°23' W 004°29'0 0.0
2015-Apr-28 12:32N 48°23' W 004°29'0 0.0
2015-Apr-28 11:32N 48°23' W 004°29'0 0.0
2015-Apr-28 10:32N 48°23' W 004°29'0 0.0
2015-Apr-28 09:33N 48°23' W 004°29'0 0.0
2015-Apr-28 08:34N 48°23' W 004°29'0 0.0
2015-Apr-28 07:33N 48°23' W 004°29'0 0.0
2015-Apr-28 06:33N 48°23' W 004°29'0 0.0
2015-Apr-28 05:33N 48°23' W 004°29'0 0.0
2015-Apr-28 04:33N 48°23' W 004°29'0 0.0
2015-Apr-28 03:33N 48°23' W 004°29'0 0.0
2015-Apr-28 02:33N 48°23' W 004°29'0 0.0
2015-Apr-28 01:33N 48°23' W 004°29'0 0.0
2015-Apr-28 00:33N 48°23' W 004°29'0 0.0
2015-Apr-27 23:34N 48°23' W 004°29'0 0.0
2015-Apr-27 22:33N 48°23' W 004°29'0 0.0
2015-Apr-27 21:33N 48°23' W 004°29'0 0.0
2015-Apr-27 20:33N 48°23' W 004°29'0 0.0
2015-Apr-27 19:33N 48°23' W 004°29'0 0.0
2015-Apr-27 18:33N 48°23' W 004°29'0 0.0
2015-Apr-27 17:33N 48°23' W 004°29'0 0.0
2015-Apr-27 16:33N 48°23' W 004°29'0 0.0
2015-Apr-27 15:33N 48°23' W 004°29'0 0.0
2015-Apr-27 14:33N 48°23' W 004°29'0 0.0
2015-Apr-27 13:33N 48°23' W 004°29'0 0.0
2015-Apr-27 12:33N 48°23' W 004°29'0 0.0
2015-Apr-27 11:33N 48°23' W 004°29'0 0.0
2015-Apr-27 10:33N 48°23' W 004°29'0 0.0
2015-Apr-27 09:33N 48°23' W 004°29'0 0.0
2015-Apr-27 08:33N 48°23' W 004°29'0 0.0
2015-Apr-27 07:33N 48°23' W 004°29'0 0.0
2015-Apr-27 06:33N 48°23' W 004°29'0 0.0
2015-Apr-27 05:33N 48°23' W 004°29'0 0.0
2015-Apr-27 04:33N 48°23' W 004°29'0 0.0
2015-Apr-27 03:33N 48°23' W 004°29'0 0.0
2015-Apr-27 02:33N 48°23' W 004°29'0 0.0
2015-Apr-27 01:33N 48°23' W 004°29'0 0.0
2015-Apr-27 00:33N 48°23' W 004°29'0 0.0
2015-Apr-26 23:33N 48°23' W 004°29'0 0.0
2015-Apr-26 22:33N 48°23' W 004°29'0 0.0
2015-Apr-26 21:33N 48°23' W 004°29'0 0.0
2015-Apr-26 20:33N 48°23' W 004°29'0 0.0
2015-Apr-26 19:33N 48°23' W 004°29'0 0.0
2015-Apr-26 18:33N 48°23' W 004°29'0 0.0
2015-Apr-26 17:33N 48°23' W 004°29'0 0.0
2015-Apr-26 16:33N 48°23' W 004°29'0 0.0
2015-Apr-26 15:33N 48°23' W 004°29'0 0.0
2015-Apr-26 14:33N 48°23' W 004°29'0 0.0
2015-Apr-26 13:33N 48°23' W 004°29'0 0.0
2015-Apr-26 12:33N 48°23' W 004°29'0 0.0
2015-Apr-26 11:33N 48°23' W 004°29'0 0.0
2015-Apr-26 10:33N 48°23' W 004°29'  

Dump ship's entire track history